sensor_id;sensor_type;location;lat;lon;timestamp;P1;durP1;ratioP1;P2;durP2;ratioP2
2522;SDS011;1272;53.332;9.860;2023-02-18T00:02:08;15.30;;;2.90;;
2522;SDS011;1272;53.332;9.860;2023-02-18T00:04:34;11.43;;;3.10;;
2522;SDS011;1272;53.332;9.860;2023-02-18T00:06:59;13.00;;;3.10;;
2522;SDS011;1272;53.332;9.860;2023-02-18T00:09:26;12.57;;;3.13;;
2522;SDS011;1272;53.332;9.860;2023-02-18T00:11:52;15.20;;;3.20;;
2522;SDS011;1272;53.332;9.860;2023-02-18T00:14:18;10.93;;;3.60;;
2522;SDS011;1272;53.332;9.860;2023-02-18T00:16:44;13.17;;;3.47;;
2522;SDS011;1272;53.332;9.860;2023-02-18T00:19:12;12.57;;;3.03;;
2522;SDS011;1272;53.332;9.860;2023-02-18T00:21:41;12.90;;;3.40;;
2522;SDS011;1272;53.332;9.860;2023-02-18T00:24:07;15.83;;;2.90;;
2522;SDS011;1272;53.332;9.860;2023-02-18T00:26:34;10.67;;;2.27;;
2522;SDS011;1272;53.332;9.860;2023-02-18T00:29:00;15.70;;;3.00;;
2522;SDS011;1272;53.332;9.860;2023-02-18T00:31:30;10.53;;;2.50;;
2522;SDS011;1272;53.332;9.860;2023-02-18T00:33:58;13.73;;;3.00;;
2522;SDS011;1272;53.332;9.860;2023-02-18T00:36:25;7.23;;;2.70;;
2522;SDS011;1272;53.332;9.860;2023-02-18T00:38:52;17.07;;;2.97;;
2522;SDS011;1272;53.332;9.860;2023-02-18T00:41:23;13.37;;;2.97;;
2522;SDS011;1272;53.332;9.860;2023-02-18T00:43:50;11.00;;;2.87;;
2522;SDS011;1272;53.332;9.860;2023-02-18T00:46:16;6.40;;;2.43;;
2522;SDS011;1272;53.332;9.860;2023-02-18T00:48:42;10.80;;;3.17;;
2522;SDS011;1272;53.332;9.860;2023-02-18T00:51:08;9.30;;;2.50;;
2522;SDS011;1272;53.332;9.860;2023-02-18T00:53:35;13.50;;;2.33;;
2522;SDS011;1272;53.332;9.860;2023-02-18T00:56:01;15.53;;;3.30;;
2522;SDS011;1272;53.332;9.860;2023-02-18T00:58:27;11.83;;;3.60;;
2522;SDS011;1272;53.332;9.860;2023-02-18T01:00:53;12.10;;;2.70;;
2522;SDS011;1272;53.332;9.860;2023-02-18T01:03:20;6.33;;;2.60;;
2522;SDS011;1272;53.332;9.860;2023-02-18T01:05:48;8.10;;;2.67;;
2522;SDS011;1272;53.332;9.860;2023-02-18T01:08:15;7.33;;;3.07;;
2522;SDS011;1272;53.332;9.860;2023-02-18T01:10:42;13.90;;;2.90;;
2522;SDS011;1272;53.332;9.860;2023-02-18T01:13:10;12.17;;;2.67;;
2522;SDS011;1272;53.332;9.860;2023-02-18T01:15:36;17.10;;;3.20;;
2522;SDS011;1272;53.332;9.860;2023-02-18T01:18:03;12.07;;;3.77;;
2522;SDS011;1272;53.332;9.860;2023-02-18T01:20:29;11.00;;;3.57;;
2522;SDS011;1272;53.332;9.860;2023-02-18T01:22:55;15.70;;;2.70;;
2522;SDS011;1272;53.332;9.860;2023-02-18T01:25:21;12.40;;;4.10;;
2522;SDS011;1272;53.332;9.860;2023-02-18T01:27:47;9.77;;;3.40;;
2522;SDS011;1272;53.332;9.860;2023-02-18T01:30:14;10.10;;;3.27;;
2522;SDS011;1272;53.332;9.860;2023-02-18T01:32:41;14.03;;;3.27;;
2522;SDS011;1272;53.332;9.860;2023-02-18T01:35:09;10.67;;;3.33;;
2522;SDS011;1272;53.332;9.860;2023-02-18T01:37:37;15.20;;;3.30;;
2522;SDS011;1272;53.332;9.860;2023-02-18T01:40:03;12.40;;;4.20;;
2522;SDS011;1272;53.332;9.860;2023-02-18T01:42:29;16.77;;;3.70;;
2522;SDS011;1272;53.332;9.860;2023-02-18T01:45:33;11.73;;;2.90;;
2522;SDS011;1272;53.332;9.860;2023-02-18T01:56:07;9.23;;;2.90;;
2522;SDS011;1272;53.332;9.860;2023-02-18T01:58:51;11.83;;;3.60;;
2522;SDS011;1272;53.332;9.860;2023-02-18T02:01:19;16.37;;;2.97;;
2522;SDS011;1272;53.332;9.860;2023-02-18T02:03:45;13.60;;;3.20;;
2522;SDS011;1272;53.332;9.860;2023-02-18T02:06:15;13.90;;;3.93;;
2522;SDS011;1272;53.332;9.860;2023-02-18T02:08:44;14.03;;;3.50;;
2522;SDS011;1272;53.332;9.860;2023-02-18T02:16:26;11.63;;;2.83;;
2522;SDS011;1272;53.332;9.860;2023-02-18T02:19:18;12.97;;;4.23;;
2522;SDS011;1272;53.332;9.860;2023-02-18T02:21:54;8.90;;;2.83;;
2522;SDS011;1272;53.332;9.860;2023-02-18T02:27:25;12.33;;;3.30;;
2522;SDS011;1272;53.332;9.860;2023-02-18T02:44:08;12.87;;;3.50;;
2522;SDS011;1272;53.332;9.860;2023-02-18T02:46:50;10.70;;;3.07;;
2522;SDS011;1272;53.332;9.860;2023-02-18T02:52:23;6.77;;;2.53;;
2522;SDS011;1272;53.332;9.860;2023-02-18T02:54:58;10.37;;;3.03;;
2522;SDS011;1272;53.332;9.860;2023-02-18T02:59:51;14.33;;;3.30;;
2522;SDS011;1272;53.332;9.860;2023-02-18T03:10:38;9.53;;;2.50;;
2522;SDS011;1272;53.332;9.860;2023-02-18T03:13:25;10.13;;;2.90;;
2522;SDS011;1272;53.332;9.860;2023-02-18T03:21:40;5.67;;;2.23;;
2522;SDS011;1272;53.332;9.860;2023-02-18T03:24:13;9.80;;;2.07;;
2522;SDS011;1272;53.332;9.860;2023-02-18T03:26:44;7.37;;;2.13;;
2522;SDS011;1272;53.332;9.860;2023-02-18T03:29:14;10.57;;;2.63;;
2522;SDS011;1272;53.332;9.860;2023-02-18T03:31:43;9.40;;;3.00;;
2522;SDS011;1272;53.332;9.860;2023-02-18T03:34:14;17.60;;;3.10;;
2522;SDS011;1272;53.332;9.860;2023-02-18T03:36:42;7.07;;;2.70;;
2522;SDS011;1272;53.332;9.860;2023-02-18T03:39:16;7.60;;;2.43;;
2522;SDS011;1272;53.332;9.860;2023-02-18T03:41:43;10.60;;;2.07;;
2522;SDS011;1272;53.332;9.860;2023-02-18T03:44:10;10.63;;;3.20;;
2522;SDS011;1272;53.332;9.860;2023-02-18T03:46:37;11.27;;;2.93;;
2522;SDS011;1272;53.332;9.860;2023-02-18T03:49:04;12.67;;;2.53;;
2522;SDS011;1272;53.332;9.860;2023-02-18T03:51:31;10.17;;;3.23;;
2522;SDS011;1272;53.332;9.860;2023-02-18T03:53:56;10.87;;;3.10;;
2522;SDS011;1272;53.332;9.860;2023-02-18T03:56:22;11.63;;;2.70;;
2522;SDS011;1272;53.332;9.860;2023-02-18T03:58:48;3.40;;;2.10;;
2522;SDS011;1272;53.332;9.860;2023-02-18T04:01:14;10.00;;;2.67;;
2522;SDS011;1272;53.332;9.860;2023-02-18T04:03:40;12.93;;;2.63;;
2522;SDS011;1272;53.332;9.860;2023-02-18T04:06:06;12.90;;;2.50;;
2522;SDS011;1272;53.332;9.860;2023-02-18T04:08:32;9.73;;;2.50;;
2522;SDS011;1272;53.332;9.860;2023-02-18T04:10:58;8.73;;;2.43;;
2522;SDS011;1272;53.332;9.860;2023-02-18T04:13:25;15.17;;;2.77;;
2522;SDS011;1272;53.332;9.860;2023-02-18T04:15:51;12.40;;;3.23;;
2522;SDS011;1272;53.332;9.860;2023-02-18T04:18:17;5.67;;;2.20;;
2522;SDS011;1272;53.332;9.860;2023-02-18T04:20:43;12.60;;;2.87;;
2522;SDS011;1272;53.332;9.860;2023-02-18T04:23:10;17.53;;;4.10;;
2522;SDS011;1272;53.332;9.860;2023-02-18T04:25:36;6.60;;;2.77;;
2522;SDS011;1272;53.332;9.860;2023-02-18T04:28:02;15.50;;;2.73;;
2522;SDS011;1272;53.332;9.860;2023-02-18T04:30:28;10.17;;;2.20;;
2522;SDS011;1272;53.332;9.860;2023-02-18T04:32:53;5.60;;;2.60;;
2522;SDS011;1272;53.332;9.860;2023-02-18T04:35:19;12.67;;;3.17;;
2522;SDS011;1272;53.332;9.860;2023-02-18T04:37:45;11.70;;;2.50;;
2522;SDS011;1272;53.332;9.860;2023-02-18T04:40:11;10.13;;;3.33;;
2522;SDS011;1272;53.332;9.860;2023-02-18T04:42:37;9.80;;;2.40;;
2522;SDS011;1272;53.332;9.860;2023-02-18T04:45:02;5.27;;;2.17;;
2522;SDS011;1272;53.332;9.860;2023-02-18T04:47:28;9.27;;;2.50;;
2522;SDS011;1272;53.332;9.860;2023-02-18T04:49:54;8.53;;;2.57;;
2522;SDS011;1272;53.332;9.860;2023-02-18T04:52:20;9.20;;;2.83;;
2522;SDS011;1272;53.332;9.860;2023-02-18T04:54:45;8.60;;;2.53;;
2522;SDS011;1272;53.332;9.860;2023-02-18T04:57:11;8.93;;;2.10;;
2522;SDS011;1272;53.332;9.860;2023-02-18T04:59:37;6.77;;;2.30;;
2522;SDS011;1272;53.332;9.860;2023-02-18T05:02:03;11.10;;;2.27;;
2522;SDS011;1272;53.332;9.860;2023-02-18T05:04:32;5.67;;;2.20;;
2522;SDS011;1272;53.332;9.860;2023-02-18T05:06:57;5.43;;;1.80;;
2522;SDS011;1272;53.332;9.860;2023-02-18T05:09:23;11.33;;;3.10;;
2522;SDS011;1272;53.332;9.860;2023-02-18T05:11:49;10.07;;;2.77;;
2522;SDS011;1272;53.332;9.860;2023-02-18T05:14:15;8.20;;;2.30;;
2522;SDS011;1272;53.332;9.860;2023-02-18T05:16:41;10.50;;;3.33;;
2522;SDS011;1272;53.332;9.860;2023-02-18T05:19:07;12.97;;;2.43;;
2522;SDS011;1272;53.332;9.860;2023-02-18T05:21:32;9.43;;;2.47;;
2522;SDS011;1272;53.332;9.860;2023-02-18T05:23:58;10.93;;;3.20;;
2522;SDS011;1272;53.332;9.860;2023-02-18T05:26:24;6.57;;;2.20;;
2522;SDS011;1272;53.332;9.860;2023-02-18T05:28:50;14.37;;;2.67;;
2522;SDS011;1272;53.332;9.860;2023-02-18T05:31:15;11.43;;;3.30;;
2522;SDS011;1272;53.332;9.860;2023-02-18T05:33:41;7.93;;;2.43;;
2522;SDS011;1272;53.332;9.860;2023-02-18T05:36:07;5.10;;;2.80;;
2522;SDS011;1272;53.332;9.860;2023-02-18T05:38:32;8.30;;;1.90;;
2522;SDS011;1272;53.332;9.860;2023-02-18T05:41:01;8.37;;;2.70;;
2522;SDS011;1272;53.332;9.860;2023-02-18T05:43:27;5.63;;;2.57;;
2522;SDS011;1272;53.332;9.860;2023-02-18T05:45:52;12.70;;;2.97;;
2522;SDS011;1272;53.332;9.860;2023-02-18T05:48:18;7.03;;;2.23;;
2522;SDS011;1272;53.332;9.860;2023-02-18T05:50:44;10.63;;;2.70;;
2522;SDS011;1272;53.332;9.860;2023-02-18T05:53:09;6.97;;;2.93;;
2522;SDS011;1272;53.332;9.860;2023-02-18T05:55:35;7.80;;;2.93;;
2522;SDS011;1272;53.332;9.860;2023-02-18T05:58:03;5.80;;;2.37;;
2522;SDS011;1272;53.332;9.860;2023-02-18T06:00:29;10.47;;;2.07;;
2522;SDS011;1272;53.332;9.860;2023-02-18T06:02:56;8.70;;;2.23;;
2522;SDS011;1272;53.332;9.860;2023-02-18T06:05:22;8.23;;;2.20;;
2522;SDS011;1272;53.332;9.860;2023-02-18T06:07:48;9.67;;;2.67;;
2522;SDS011;1272;53.332;9.860;2023-02-18T06:10:14;9.40;;;2.20;;
2522;SDS011;1272;53.332;9.860;2023-02-18T06:12:39;8.63;;;2.43;;
2522;SDS011;1272;53.332;9.860;2023-02-18T06:15:05;10.93;;;2.20;;
2522;SDS011;1272;53.332;9.860;2023-02-18T06:17:31;9.60;;;2.83;;
2522;SDS011;1272;53.332;9.860;2023-02-18T06:19:57;8.67;;;2.80;;
2522;SDS011;1272;53.332;9.860;2023-02-18T06:22:23;3.43;;;2.10;;
2522;SDS011;1272;53.332;9.860;2023-02-18T06:24:51;8.67;;;2.60;;
2522;SDS011;1272;53.332;9.860;2023-02-18T06:27:17;6.60;;;2.70;;
2522;SDS011;1272;53.332;9.860;2023-02-18T06:29:43;7.73;;;2.50;;
2522;SDS011;1272;53.332;9.860;2023-02-18T06:32:08;8.20;;;2.43;;
2522;SDS011;1272;53.332;9.860;2023-02-18T06:34:34;9.63;;;2.23;;
2522;SDS011;1272;53.332;9.860;2023-02-18T06:37:00;5.37;;;1.90;;
2522;SDS011;1272;53.332;9.860;2023-02-18T06:39:25;9.37;;;2.30;;
2522;SDS011;1272;53.332;9.860;2023-02-18T06:41:51;4.93;;;2.67;;
2522;SDS011;1272;53.332;9.860;2023-02-18T06:44:17;3.57;;;1.80;;
2522;SDS011;1272;53.332;9.860;2023-02-18T06:46:43;17.17;;;3.27;;
2522;SDS011;1272;53.332;9.860;2023-02-18T06:49:10;4.53;;;2.10;;
2522;SDS011;1272;53.332;9.860;2023-02-18T06:51:36;5.47;;;2.17;;
2522;SDS011;1272;53.332;9.860;2023-02-18T06:54:02;9.80;;;2.30;;
2522;SDS011;1272;53.332;9.860;2023-02-18T06:56:29;3.40;;;1.47;;
2522;SDS011;1272;53.332;9.860;2023-02-18T06:58:55;6.73;;;1.80;;
2522;SDS011;1272;53.332;9.860;2023-02-18T07:01:21;7.43;;;2.00;;
2522;SDS011;1272;53.332;9.860;2023-02-18T07:03:46;4.83;;;1.60;;
2522;SDS011;1272;53.332;9.860;2023-02-18T07:06:12;7.00;;;1.93;;
2522;SDS011;1272;53.332;9.860;2023-02-18T07:08:37;2.43;;;1.43;;
2522;SDS011;1272;53.332;9.860;2023-02-18T07:11:03;5.50;;;1.80;;
2522;SDS011;1272;53.332;9.860;2023-02-18T07:13:29;5.03;;;1.90;;
2522;SDS011;1272;53.332;9.860;2023-02-18T07:15:55;3.70;;;2.20;;
2522;SDS011;1272;53.332;9.860;2023-02-18T07:18:20;3.93;;;2.67;;
2522;SDS011;1272;53.332;9.860;2023-02-18T07:20:46;7.40;;;2.20;;
2522;SDS011;1272;53.332;9.860;2023-02-18T07:23:12;7.23;;;2.13;;
2522;SDS011;1272;53.332;9.860;2023-02-18T07:25:37;5.70;;;2.03;;
2522;SDS011;1272;53.332;9.860;2023-02-18T07:28:03;5.07;;;1.77;;
2522;SDS011;1272;53.332;9.860;2023-02-18T07:30:29;4.73;;;2.53;;
2522;SDS011;1272;53.332;9.860;2023-02-18T07:32:55;6.23;;;2.10;;
2522;SDS011;1272;53.332;9.860;2023-02-18T07:35:20;6.50;;;2.73;;
2522;SDS011;1272;53.332;9.860;2023-02-18T07:37:46;3.83;;;1.87;;
2522;SDS011;1272;53.332;9.860;2023-02-18T07:40:14;7.57;;;2.33;;
2522;SDS011;1272;53.332;9.860;2023-02-18T07:42:43;11.33;;;2.87;;
2522;SDS011;1272;53.332;9.860;2023-02-18T07:45:14;4.43;;;2.40;;
2522;SDS011;1272;53.332;9.860;2023-02-18T07:47:39;7.27;;;2.23;;
2522;SDS011;1272;53.332;9.860;2023-02-18T07:50:07;4.13;;;1.80;;
2522;SDS011;1272;53.332;9.860;2023-02-18T07:52:33;9.87;;;3.00;;
2522;SDS011;1272;53.332;9.860;2023-02-18T07:54:59;6.63;;;2.13;;
2522;SDS011;1272;53.332;9.860;2023-02-18T07:57:25;3.03;;;2.40;;
2522;SDS011;1272;53.332;9.860;2023-02-18T07:59:50;4.10;;;2.40;;
2522;SDS011;1272;53.332;9.860;2023-02-18T08:02:17;7.57;;;3.37;;
2522;SDS011;1272;53.332;9.860;2023-02-18T08:04:46;7.90;;;3.23;;
2522;SDS011;1272;53.332;9.860;2023-02-18T08:07:12;10.43;;;3.40;;
2522;SDS011;1272;53.332;9.860;2023-02-18T08:13:20;12.47;;;7.10;;
2522;SDS011;1272;53.332;9.860;2023-02-18T08:16:04;19.30;;;8.17;;
2522;SDS011;1272;53.332;9.860;2023-02-18T08:18:39;6.40;;;3.80;;
2522;SDS011;1272;53.332;9.860;2023-02-18T08:21:08;8.70;;;3.67;;
2522;SDS011;1272;53.332;9.860;2023-02-18T08:23:33;9.03;;;3.17;;
2522;SDS011;1272;53.332;9.860;2023-02-18T08:25:59;6.90;;;3.60;;
2522;SDS011;1272;53.332;9.860;2023-02-18T08:28:25;6.77;;;3.07;;
2522;SDS011;1272;53.332;9.860;2023-02-18T08:30:51;7.97;;;3.40;;
2522;SDS011;1272;53.332;9.860;2023-02-18T08:33:19;6.10;;;3.10;;
2522;SDS011;1272;53.332;9.860;2023-02-18T08:35:46;5.90;;;2.80;;
2522;SDS011;1272;53.332;9.860;2023-02-18T08:38:13;5.33;;;3.30;;
2522;SDS011;1272;53.332;9.860;2023-02-18T08:40:39;6.43;;;2.90;;
2522;SDS011;1272;53.332;9.860;2023-02-18T08:43:06;5.93;;;3.80;;
2522;SDS011;1272;53.332;9.860;2023-02-18T08:45:32;4.03;;;3.50;;
2522;SDS011;1272;53.332;9.860;2023-02-18T08:47:58;7.03;;;3.70;;
2522;SDS011;1272;53.332;9.860;2023-02-18T08:50:24;8.10;;;4.10;;
2522;SDS011;1272;53.332;9.860;2023-02-18T08:52:52;5.90;;;3.57;;
2522;SDS011;1272;53.332;9.860;2023-02-18T08:55:21;3.50;;;3.20;;
2522;SDS011;1272;53.332;9.860;2023-02-18T08:57:48;5.17;;;4.50;;
2522;SDS011;1272;53.332;9.860;2023-02-18T09:00:14;3.20;;;2.77;;
2522;SDS011;1272;53.332;9.860;2023-02-18T09:02:41;6.00;;;3.30;;
2522;SDS011;1272;53.332;9.860;2023-02-18T09:05:07;6.23;;;3.60;;
2522;SDS011;1272;53.332;9.860;2023-02-18T09:07:34;5.53;;;3.60;;
2522;SDS011;1272;53.332;9.860;2023-02-18T09:10:00;5.07;;;3.70;;
2522;SDS011;1272;53.332;9.860;2023-02-18T09:12:27;3.60;;;3.30;;
2522;SDS011;1272;53.332;9.860;2023-02-18T09:14:53;4.33;;;3.30;;
2522;SDS011;1272;53.332;9.860;2023-02-18T09:17:18;8.00;;;3.80;;
2522;SDS011;1272;53.332;9.860;2023-02-18T09:19:44;3.47;;;3.20;;
2522;SDS011;1272;53.332;9.860;2023-02-18T09:22:10;3.90;;;3.40;;
2522;SDS011;1272;53.332;9.860;2023-02-18T09:24:39;4.00;;;3.37;;
2522;SDS011;1272;53.332;9.860;2023-02-18T09:27:06;3.37;;;3.00;;
2522;SDS011;1272;53.332;9.860;2023-02-18T09:29:36;3.70;;;2.93;;
2522;SDS011;1272;53.332;9.860;2023-02-18T09:32:04;3.03;;;2.83;;
2522;SDS011;1272;53.332;9.860;2023-02-18T09:34:30;2.50;;;2.30;;
2522;SDS011;1272;53.332;9.860;2023-02-18T09:36:57;2.67;;;2.50;;
2522;SDS011;1272;53.332;9.860;2023-02-18T09:39:22;2.77;;;2.57;;
2522;SDS011;1272;53.332;9.860;2023-02-18T09:41:52;2.80;;;2.60;;
2522;SDS011;1272;53.332;9.860;2023-02-18T09:47:14;3.07;;;2.87;;
2522;SDS011;1272;53.332;9.860;2023-02-18T09:50:13;3.50;;;3.20;;
2522;SDS011;1272;53.332;9.860;2023-02-18T09:52:41;3.57;;;3.27;;
2522;SDS011;1272;53.332;9.860;2023-02-18T09:55:18;3.80;;;3.50;;
2522;SDS011;1272;53.332;9.860;2023-02-18T09:58:03;4.40;;;4.03;;
2522;SDS011;1272;53.332;9.860;2023-02-18T10:01:12;4.47;;;3.77;;
2522;SDS011;1272;53.332;9.860;2023-02-18T10:03:39;4.30;;;3.90;;
2522;SDS011;1272;53.332;9.860;2023-02-18T10:06:26;4.83;;;4.43;;
2522;SDS011;1272;53.332;9.860;2023-02-18T10:08:55;6.53;;;4.17;;
2522;SDS011;1272;53.332;9.860;2023-02-18T10:11:31;5.10;;;4.70;;
2522;SDS011;1272;53.332;9.860;2023-02-18T10:14:04;6.73;;;4.40;;
2522;SDS011;1272;53.332;9.860;2023-02-18T10:16:35;4.30;;;3.90;;
2522;SDS011;1272;53.332;9.860;2023-02-18T10:21:47;11.20;;;4.93;;
2522;SDS011;1272;53.332;9.860;2023-02-18T10:26:51;6.40;;;5.33;;
2522;SDS011;1272;53.332;9.860;2023-02-18T10:29:18;7.83;;;5.53;;
2522;SDS011;1272;53.332;9.860;2023-02-18T10:31:48;7.97;;;5.27;;
2522;SDS011;1272;53.332;9.860;2023-02-18T10:34:41;7.10;;;5.00;;
2522;SDS011;1272;53.332;9.860;2023-02-18T10:39:49;7.47;;;5.23;;
2522;SDS011;1272;53.332;9.860;2023-02-18T10:51:18;5.40;;;4.60;;
2522;SDS011;1272;53.332;9.860;2023-02-18T10:53:51;6.83;;;5.30;;
2522;SDS011;1272;53.332;9.860;2023-02-18T10:56:40;6.40;;;5.07;;
2522;SDS011;1272;53.332;9.860;2023-02-18T10:59:21;5.93;;;5.30;;
2522;SDS011;1272;53.332;9.860;2023-02-18T11:01:56;7.83;;;6.03;;
2522;SDS011;1272;53.332;9.860;2023-02-18T11:04:38;6.80;;;5.60;;
2522;SDS011;1272;53.332;9.860;2023-02-18T11:07:18;8.40;;;5.07;;
2522;SDS011;1272;53.332;9.860;2023-02-18T11:09:57;7.53;;;5.07;;
2522;SDS011;1272;53.332;9.860;2023-02-18T11:12:27;5.70;;;4.97;;
2522;SDS011;1272;53.332;9.860;2023-02-18T11:17:44;6.20;;;4.97;;
2522;SDS011;1272;53.332;9.860;2023-02-18T11:23:14;5.77;;;5.17;;
2522;SDS011;1272;53.332;9.860;2023-02-18T11:25:51;6.00;;;5.10;;
2522;SDS011;1272;53.332;9.860;2023-02-18T11:29:03;6.23;;;5.67;;
2522;SDS011;1272;53.332;9.860;2023-02-18T11:31:40;6.77;;;5.40;;
2522;SDS011;1272;53.332;9.860;2023-02-18T11:34:19;5.13;;;4.80;;
2522;SDS011;1272;53.332;9.860;2023-02-18T11:36:47;4.87;;;4.17;;
2522;SDS011;1272;53.332;9.860;2023-02-18T11:39:26;4.73;;;4.33;;
2522;SDS011;1272;53.332;9.860;2023-02-18T11:42:03;4.60;;;4.20;;
2522;SDS011;1272;53.332;9.860;2023-02-18T11:44:31;4.03;;;3.83;;
2522;SDS011;1272;53.332;9.860;2023-02-18T11:49:31;4.10;;;3.80;;
2522;SDS011;1272;53.332;9.860;2023-02-18T11:52:03;3.60;;;3.30;;
2522;SDS011;1272;53.332;9.860;2023-02-18T11:54:43;4.23;;;3.83;;
2522;SDS011;1272;53.332;9.860;2023-02-18T11:57:25;3.20;;;3.00;;
2522;SDS011;1272;53.332;9.860;2023-02-18T11:59:52;3.60;;;3.30;;
2522;SDS011;1272;53.332;9.860;2023-02-18T12:05:04;6.47;;;4.37;;
2522;SDS011;1272;53.332;9.860;2023-02-18T12:10:35;3.37;;;3.07;;
2522;SDS011;1272;53.332;9.860;2023-02-18T12:18:44;3.93;;;2.87;;
2522;SDS011;1272;53.332;9.860;2023-02-18T12:21:24;2.50;;;2.30;;
2522;SDS011;1272;53.332;9.860;2023-02-18T12:38:25;1.30;;;1.30;;
2522;SDS011;1272;53.332;9.860;2023-02-18T12:58:09;2.60;;;1.80;;
2522;SDS011;1272;53.332;9.860;2023-02-18T13:14:20;4.00;;;1.83;;
2522;SDS011;1272;53.332;9.860;2023-02-18T13:16:51;3.23;;;2.10;;
2522;SDS011;1272;53.332;9.860;2023-02-18T13:22:02;11.07;;;2.57;;
2522;SDS011;1272;53.332;9.860;2023-02-18T13:24:35;5.23;;;2.57;;
2522;SDS011;1272;53.332;9.860;2023-02-18T13:29:43;7.73;;;3.20;;
2522;SDS011;1272;53.332;9.860;2023-02-18T13:35:36;9.40;;;3.40;;
2522;SDS011;1272;53.332;9.860;2023-02-18T13:41:03;5.77;;;2.87;;
2522;SDS011;1272;53.332;9.860;2023-02-18T13:43:30;7.03;;;3.30;;
2522;SDS011;1272;53.332;9.860;2023-02-18T13:46:07;10.97;;;3.30;;
2522;SDS011;1272;53.332;9.860;2023-02-18T13:48:51;11.30;;;4.27;;
2522;SDS011;1272;53.332;9.860;2023-02-18T13:54:01;9.77;;;3.67;;
2522;SDS011;1272;53.332;9.860;2023-02-18T13:56:42;8.83;;;4.00;;
2522;SDS011;1272;53.332;9.860;2023-02-18T14:01:49;15.60;;;4.60;;
2522;SDS011;1272;53.332;9.860;2023-02-18T14:13:00;12.13;;;3.40;;
2522;SDS011;1272;53.332;9.860;2023-02-18T14:15:45;12.53;;;3.37;;
2522;SDS011;1272;53.332;9.860;2023-02-18T14:21:04;11.73;;;2.87;;
2522;SDS011;1272;53.332;9.860;2023-02-18T14:23:54;16.87;;;3.07;;
2522;SDS011;1272;53.332;9.860;2023-02-18T14:29:14;11.23;;;3.33;;
2522;SDS011;1272;53.332;9.860;2023-02-18T14:32:08;5.87;;;2.70;;
2522;SDS011;1272;53.332;9.860;2023-02-18T14:34:42;12.47;;;5.33;;
2522;SDS011;1272;53.332;9.860;2023-02-18T14:40:19;9.80;;;3.20;;
2522;SDS011;1272;53.332;9.860;2023-02-18T14:42:59;7.33;;;3.27;;
2522;SDS011;1272;53.332;9.860;2023-02-18T14:46:18;7.27;;;2.97;;
2522;SDS011;1272;53.332;9.860;2023-02-18T14:51:24;8.43;;;2.47;;
2522;SDS011;1272;53.332;9.860;2023-02-18T14:53:51;6.47;;;2.60;;
2522;SDS011;1272;53.332;9.860;2023-02-18T14:56:17;9.73;;;2.87;;
2522;SDS011;1272;53.332;9.860;2023-02-18T14:58:46;13.33;;;2.43;;
2522;SDS011;1272;53.332;9.860;2023-02-18T15:01:31;11.30;;;3.10;;
2522;SDS011;1272;53.332;9.860;2023-02-18T15:03:59;8.83;;;3.80;;
2522;SDS011;1272;53.332;9.860;2023-02-18T15:06:30;7.17;;;2.63;;
2522;SDS011;1272;53.332;9.860;2023-02-18T15:08:59;12.47;;;3.10;;
2522;SDS011;1272;53.332;9.860;2023-02-18T15:11:31;5.33;;;3.10;;
2522;SDS011;1272;53.332;9.860;2023-02-18T15:14:09;11.67;;;2.57;;
2522;SDS011;1272;53.332;9.860;2023-02-18T15:16:43;12.40;;;3.23;;
2522;SDS011;1272;53.332;9.860;2023-02-18T15:19:21;11.73;;;3.30;;
2522;SDS011;1272;53.332;9.860;2023-02-18T15:21:53;10.07;;;2.97;;
2522;SDS011;1272;53.332;9.860;2023-02-18T15:26:57;8.93;;;3.43;;
2522;SDS011;1272;53.332;9.860;2023-02-18T15:29:26;16.73;;;3.23;;
2522;SDS011;1272;53.332;9.860;2023-02-18T15:31:55;11.40;;;2.87;;
2522;SDS011;1272;53.332;9.860;2023-02-18T15:36:54;19.00;;;3.80;;
2522;SDS011;1272;53.332;9.860;2023-02-18T15:39:21;9.30;;;3.10;;
2522;SDS011;1272;53.332;9.860;2023-02-18T15:41:51;9.07;;;3.23;;
2522;SDS011;1272;53.332;9.860;2023-02-18T15:44:22;7.20;;;3.00;;
2522;SDS011;1272;53.332;9.860;2023-02-18T15:46:51;12.13;;;2.80;;
2522;SDS011;1272;53.332;9.860;2023-02-18T15:49:18;9.67;;;3.60;;
2522;SDS011;1272;53.332;9.860;2023-02-18T15:51:46;11.40;;;3.93;;
2522;SDS011;1272;53.332;9.860;2023-02-18T15:54:19;16.03;;;4.30;;
2522;SDS011;1272;53.332;9.860;2023-02-18T15:56:54;5.50;;;2.90;;
2522;SDS011;1272;53.332;9.860;2023-02-18T15:59:25;7.43;;;2.93;;
2522;SDS011;1272;53.332;9.860;2023-02-18T16:04:56;14.00;;;3.50;;
2522;SDS011;1272;53.332;9.860;2023-02-18T16:07:26;10.17;;;2.80;;
2522;SDS011;1272;53.332;9.860;2023-02-18T16:10:07;11.03;;;2.50;;
2522;SDS011;1272;53.332;9.860;2023-02-18T16:12:48;10.73;;;3.60;;
2522;SDS011;1272;53.332;9.860;2023-02-18T16:15:28;7.47;;;2.37;;
2522;SDS011;1272;53.332;9.860;2023-02-18T16:17:55;7.07;;;2.90;;
2522;SDS011;1272;53.332;9.860;2023-02-18T16:20:34;4.97;;;2.80;;
2522;SDS011;1272;53.332;9.860;2023-02-18T16:23:11;6.97;;;2.70;;
2522;SDS011;1272;53.332;9.860;2023-02-18T16:25:45;10.03;;;2.63;;
2522;SDS011;1272;53.332;9.860;2023-02-18T16:28:20;8.27;;;2.50;;
2522;SDS011;1272;53.332;9.860;2023-02-18T16:30:48;6.63;;;2.60;;
2522;SDS011;1272;53.332;9.860;2023-02-18T16:33:14;8.87;;;3.10;;
2522;SDS011;1272;53.332;9.860;2023-02-18T16:35:40;4.50;;;2.17;;
2522;SDS011;1272;53.332;9.860;2023-02-18T16:38:09;6.47;;;3.00;;
2522;SDS011;1272;53.332;9.860;2023-02-18T16:40:43;9.07;;;2.60;;
2522;SDS011;1272;53.332;9.860;2023-02-18T16:43:13;9.23;;;3.03;;
2522;SDS011;1272;53.332;9.860;2023-02-18T16:45:47;6.23;;;2.90;;
2522;SDS011;1272;53.332;9.860;2023-02-18T16:51:33;6.77;;;3.70;;
2522;SDS011;1272;53.332;9.860;2023-02-18T16:53:58;4.93;;;2.80;;
2522;SDS011;1272;53.332;9.860;2023-02-18T16:56:25;3.53;;;3.20;;
2522;SDS011;1272;53.332;9.860;2023-02-18T16:58:54;3.53;;;3.10;;
2522;SDS011;1272;53.332;9.860;2023-02-18T17:03:49;6.00;;;3.83;;
2522;SDS011;1272;53.332;9.860;2023-02-18T17:06:15;5.27;;;2.83;;
2522;SDS011;1272;53.332;9.860;2023-02-18T17:08:41;3.97;;;3.50;;
2522;SDS011;1272;53.332;9.860;2023-02-18T17:11:08;3.67;;;3.37;;
2522;SDS011;1272;53.332;9.860;2023-02-18T17:13:41;3.60;;;3.40;;
2522;SDS011;1272;53.332;9.860;2023-02-18T17:16:08;5.27;;;4.63;;
2522;SDS011;1272;53.332;9.860;2023-02-18T17:18:34;5.20;;;3.60;;
2522;SDS011;1272;53.332;9.860;2023-02-18T17:21:01;4.27;;;3.83;;
2522;SDS011;1272;53.332;9.860;2023-02-18T17:23:28;4.03;;;3.10;;
2522;SDS011;1272;53.332;9.860;2023-02-18T17:25:53;3.80;;;3.50;;
2522;SDS011;1272;53.332;9.860;2023-02-18T17:28:19;5.63;;;4.57;;
2522;SDS011;1272;53.332;9.860;2023-02-18T17:30:46;5.50;;;5.10;;
2522;SDS011;1272;53.332;9.860;2023-02-18T17:33:16;6.17;;;5.57;;
2522;SDS011;1272;53.332;9.860;2023-02-18T17:35:43;6.60;;;5.53;;
2522;SDS011;1272;53.332;9.860;2023-02-18T17:38:10;5.90;;;5.40;;
2522;SDS011;1272;53.332;9.860;2023-02-18T17:40:36;6.53;;;6.03;;
2522;SDS011;1272;53.332;9.860;2023-02-18T17:43:03;6.63;;;6.13;;
2522;SDS011;1272;53.332;9.860;2023-02-18T17:45:35;6.37;;;5.87;;
2522;SDS011;1272;53.332;9.860;2023-02-18T17:48:04;6.40;;;5.80;;
2522;SDS011;1272;53.332;9.860;2023-02-18T17:50:30;5.87;;;5.37;;
2522;SDS011;1272;53.332;9.860;2023-02-18T17:52:57;6.03;;;5.63;;
2522;SDS011;1272;53.332;9.860;2023-02-18T17:55:24;6.13;;;5.73;;
2522;SDS011;1272;53.332;9.860;2023-02-18T17:57:51;7.27;;;6.60;;
2522;SDS011;1272;53.332;9.860;2023-02-18T18:02:51;5.60;;;5.27;;
2522;SDS011;1272;53.332;9.860;2023-02-18T18:05:24;7.00;;;6.40;;
2522;SDS011;1272;53.332;9.860;2023-02-18T18:07:55;7.50;;;6.70;;
2522;SDS011;1272;53.332;9.860;2023-02-18T18:10:22;7.83;;;7.03;;
2522;SDS011;1272;53.332;9.860;2023-02-18T18:12:59;7.97;;;7.17;;
2522;SDS011;1272;53.332;9.860;2023-02-18T18:15:35;7.60;;;6.73;;
2522;SDS011;1272;53.332;9.860;2023-02-18T18:18:03;7.73;;;6.67;;
2522;SDS011;1272;53.332;9.860;2023-02-18T18:20:30;7.00;;;6.40;;
2522;SDS011;1272;53.332;9.860;2023-02-18T18:22:58;7.37;;;6.67;;
2522;SDS011;1272;53.332;9.860;2023-02-18T18:25:25;7.20;;;6.50;;
2522;SDS011;1272;53.332;9.860;2023-02-18T18:27:53;7.47;;;6.77;;
2522;SDS011;1272;53.332;9.860;2023-02-18T18:30:20;6.97;;;6.27;;
2522;SDS011;1272;53.332;9.860;2023-02-18T18:32:48;7.37;;;6.57;;
2522;SDS011;1272;53.332;9.860;2023-02-18T18:35:24;6.53;;;5.93;;
2522;SDS011;1272;53.332;9.860;2023-02-18T18:37:52;6.40;;;5.80;;